sensor_id;sensor_type;location;lat;lon;timestamp;P1;durP1;ratioP1;P2;durP2;ratioP2
28822;SDS011;15961;54.678;9.110;2023-06-22T00:00:38;10.07;;;7.45;;
28822;SDS011;15961;54.678;9.110;2023-06-22T00:03:06;11.75;;;6.75;;
28822;SDS011;15961;54.678;9.110;2023-06-22T00:05:32;12.25;;;6.50;;
28822;SDS011;15961;54.678;9.110;2023-06-22T00:07:57;11.68;;;7.65;;
28822;SDS011;15961;54.678;9.110;2023-06-22T00:10:22;12.85;;;7.03;;
28822;SDS011;15961;54.678;9.110;2023-06-22T00:12:48;13.00;;;8.52;;
28822;SDS011;15961;54.678;9.110;2023-06-22T00:15:13;17.58;;;9.85;;
28822;SDS011;15961;54.678;9.110;2023-06-22T00:17:38;9.73;;;6.13;;
28822;SDS011;15961;54.678;9.110;2023-06-22T00:20:04;12.70;;;6.30;;
28822;SDS011;15961;54.678;9.110;2023-06-22T00:22:30;11.95;;;6.50;;
28822;SDS011;15961;54.678;9.110;2023-06-22T00:24:56;11.05;;;8.40;;
28822;SDS011;15961;54.678;9.110;2023-06-22T00:27:21;9.27;;;5.70;;
28822;SDS011;15961;54.678;9.110;2023-06-22T00:29:47;10.82;;;5.32;;
28822;SDS011;15961;54.678;9.110;2023-06-22T00:32:12;10.93;;;7.03;;
28822;SDS011;15961;54.678;9.110;2023-06-22T00:34:37;14.60;;;7.72;;
28822;SDS011;15961;54.678;9.110;2023-06-22T00:37:03;10.68;;;6.10;;
28822;SDS011;15961;54.678;9.110;2023-06-22T00:39:28;12.13;;;8.25;;
28822;SDS011;15961;54.678;9.110;2023-06-22T00:41:54;10.98;;;6.75;;
28822;SDS011;15961;54.678;9.110;2023-06-22T00:44:19;14.07;;;8.68;;
28822;SDS011;15961;54.678;9.110;2023-06-22T00:46:45;10.90;;;8.18;;
28822;SDS011;15961;54.678;9.110;2023-06-22T00:49:10;12.93;;;7.78;;
28822;SDS011;15961;54.678;9.110;2023-06-22T00:51:35;15.52;;;8.77;;
28822;SDS011;15961;54.678;9.110;2023-06-22T00:54:03;13.00;;;7.78;;
28822;SDS011;15961;54.678;9.110;2023-06-22T00:56:30;15.38;;;8.57;;
28822;SDS011;15961;54.678;9.110;2023-06-22T00:58:55;12.77;;;8.02;;
28822;SDS011;15961;54.678;9.110;2023-06-22T01:01:22;11.73;;;7.60;;
28822;SDS011;15961;54.678;9.110;2023-06-22T01:03:47;12.27;;;6.97;;
28822;SDS011;15961;54.678;9.110;2023-06-22T01:06:15;12.45;;;6.72;;
28822;SDS011;15961;54.678;9.110;2023-06-22T01:08:49;14.15;;;8.82;;
28822;SDS011;15961;54.678;9.110;2023-06-22T01:11:21;15.63;;;8.57;;
28822;SDS011;15961;54.678;9.110;2023-06-22T01:13:57;10.45;;;7.03;;
28822;SDS011;15961;54.678;9.110;2023-06-22T01:16:30;13.13;;;8.80;;
28822;SDS011;15961;54.678;9.110;2023-06-22T01:18:57;11.02;;;6.10;;
28822;SDS011;15961;54.678;9.110;2023-06-22T01:21:23;10.15;;;6.68;;
28822;SDS011;15961;54.678;9.110;2023-06-22T01:29:08;12.77;;;6.60;;
28822;SDS011;15961;54.678;9.110;2023-06-22T01:31:34;11.50;;;7.10;;
28822;SDS011;15961;54.678;9.110;2023-06-22T01:34:01;10.20;;;5.85;;
28822;SDS011;15961;54.678;9.110;2023-06-22T01:36:29;9.23;;;5.32;;
28822;SDS011;15961;54.678;9.110;2023-06-22T01:38:55;10.13;;;5.60;;
28822;SDS011;15961;54.678;9.110;2023-06-22T01:41:24;9.30;;;5.50;;
28822;SDS011;15961;54.678;9.110;2023-06-22T01:43:50;9.60;;;6.00;;
28822;SDS011;15961;54.678;9.110;2023-06-22T01:46:16;10.30;;;5.25;;
28822;SDS011;15961;54.678;9.110;2023-06-22T01:48:44;9.90;;;5.88;;
28822;SDS011;15961;54.678;9.110;2023-06-22T01:51:09;8.02;;;5.07;;
28822;SDS011;15961;54.678;9.110;2023-06-22T01:53:35;7.40;;;4.95;;
28822;SDS011;15961;54.678;9.110;2023-06-22T01:56:00;9.95;;;6.88;;
28822;SDS011;15961;54.678;9.110;2023-06-22T01:58:26;8.73;;;4.55;;
28822;SDS011;15961;54.678;9.110;2023-06-22T02:00:56;6.75;;;4.50;;
28822;SDS011;15961;54.678;9.110;2023-06-22T02:03:30;6.28;;;3.80;;
28822;SDS011;15961;54.678;9.110;2023-06-22T02:06:08;6.25;;;3.70;;
28822;SDS011;15961;54.678;9.110;2023-06-22T02:08:39;7.88;;;4.95;;
28822;SDS011;15961;54.678;9.110;2023-06-22T02:11:06;7.47;;;4.65;;
28822;SDS011;15961;54.678;9.110;2023-06-22T02:13:33;9.02;;;5.60;;
28822;SDS011;15961;54.678;9.110;2023-06-22T02:15:59;8.75;;;6.63;;
28822;SDS011;15961;54.678;9.110;2023-06-22T02:18:25;8.10;;;5.13;;
28822;SDS011;15961;54.678;9.110;2023-06-22T02:20:50;8.05;;;5.25;;
28822;SDS011;15961;54.678;9.110;2023-06-22T02:23:16;7.25;;;4.25;;
28822;SDS011;15961;54.678;9.110;2023-06-22T02:25:41;7.65;;;4.35;;
28822;SDS011;15961;54.678;9.110;2023-06-22T02:28:09;6.95;;;4.30;;
28822;SDS011;15961;54.678;9.110;2023-06-22T02:30:34;7.00;;;4.20;;
28822;SDS011;15961;54.678;9.110;2023-06-22T02:32:59;6.68;;;4.20;;
28822;SDS011;15961;54.678;9.110;2023-06-22T02:35:28;7.45;;;5.05;;
28822;SDS011;15961;54.678;9.110;2023-06-22T02:38:00;9.93;;;6.10;;
28822;SDS011;15961;54.678;9.110;2023-06-22T02:40:25;7.57;;;5.05;;
28822;SDS011;15961;54.678;9.110;2023-06-22T02:42:51;6.70;;;4.65;;
28822;SDS011;15961;54.678;9.110;2023-06-22T02:45:16;6.70;;;4.10;;
28822;SDS011;15961;54.678;9.110;2023-06-22T02:47:42;6.22;;;3.90;;
28822;SDS011;15961;54.678;9.110;2023-06-22T02:50:07;5.72;;;3.35;;
28822;SDS011;15961;54.678;9.110;2023-06-22T02:52:32;6.35;;;5.20;;
28822;SDS011;15961;54.678;9.110;2023-06-22T02:54:58;7.32;;;4.85;;
28822;SDS011;15961;54.678;9.110;2023-06-22T02:57:24;8.18;;;5.63;;
28822;SDS011;15961;54.678;9.110;2023-06-22T02:59:49;7.38;;;5.13;;
28822;SDS011;15961;54.678;9.110;2023-06-22T03:02:14;8.48;;;5.00;;
28822;SDS011;15961;54.678;9.110;2023-06-22T03:04:40;10.20;;;6.10;;
28822;SDS011;15961;54.678;9.110;2023-06-22T03:07:05;7.13;;;4.75;;
28822;SDS011;15961;54.678;9.110;2023-06-22T03:09:30;5.78;;;4.63;;
28822;SDS011;15961;54.678;9.110;2023-06-22T03:11:55;8.23;;;5.32;;
28822;SDS011;15961;54.678;9.110;2023-06-22T03:14:21;10.75;;;6.97;;
28822;SDS011;15961;54.678;9.110;2023-06-22T03:16:46;8.65;;;5.18;;
28822;SDS011;15961;54.678;9.110;2023-06-22T03:19:12;9.00;;;6.20;;
28822;SDS011;15961;54.678;9.110;2023-06-22T03:21:37;9.27;;;5.82;;
28822;SDS011;15961;54.678;9.110;2023-06-22T03:24:06;7.47;;;4.70;;
28822;SDS011;15961;54.678;9.110;2023-06-22T03:26:32;8.05;;;4.50;;
28822;SDS011;15961;54.678;9.110;2023-06-22T03:28:57;11.38;;;7.05;;
28822;SDS011;15961;54.678;9.110;2023-06-22T03:31:23;11.20;;;6.72;;
28822;SDS011;15961;54.678;9.110;2023-06-22T03:33:48;12.05;;;7.30;;
28822;SDS011;15961;54.678;9.110;2023-06-22T03:36:14;9.73;;;5.30;;
28822;SDS011;15961;54.678;9.110;2023-06-22T03:38:43;9.30;;;5.55;;
28822;SDS011;15961;54.678;9.110;2023-06-22T03:41:09;8.63;;;5.32;;
28822;SDS011;15961;54.678;9.110;2023-06-22T03:43:35;8.60;;;6.25;;
28822;SDS011;15961;54.678;9.110;2023-06-22T03:46:00;9.07;;;5.15;;
28822;SDS011;15961;54.678;9.110;2023-06-22T03:48:25;8.65;;;5.80;;
28822;SDS011;15961;54.678;9.110;2023-06-22T03:50:50;7.68;;;5.22;;
28822;SDS011;15961;54.678;9.110;2023-06-22T03:53:16;7.18;;;5.03;;
28822;SDS011;15961;54.678;9.110;2023-06-22T03:55:47;6.75;;;4.35;;
28822;SDS011;15961;54.678;9.110;2023-06-22T03:58:16;8.75;;;6.22;;
28822;SDS011;15961;54.678;9.110;2023-06-22T04:00:43;7.13;;;4.60;;
28822;SDS011;15961;54.678;9.110;2023-06-22T04:03:09;9.93;;;5.90;;
28822;SDS011;15961;54.678;9.110;2023-06-22T04:05:34;8.98;;;6.07;;
28822;SDS011;15961;54.678;9.110;2023-06-22T04:08:00;6.57;;;4.63;;
28822;SDS011;15961;54.678;9.110;2023-06-22T04:10:25;6.63;;;4.50;;
28822;SDS011;15961;54.678;9.110;2023-06-22T04:12:50;7.72;;;4.43;;
28822;SDS011;15961;54.678;9.110;2023-06-22T04:15:16;7.00;;;4.40;;
28822;SDS011;15961;54.678;9.110;2023-06-22T04:17:41;10.20;;;6.18;;
28822;SDS011;15961;54.678;9.110;2023-06-22T04:20:06;7.32;;;5.10;;
28822;SDS011;15961;54.678;9.110;2023-06-22T04:22:32;7.45;;;4.88;;
28822;SDS011;15961;54.678;9.110;2023-06-22T04:24:58;9.45;;;4.43;;
28822;SDS011;15961;54.678;9.110;2023-06-22T04:27:23;6.43;;;4.43;;
28822;SDS011;15961;54.678;9.110;2023-06-22T04:29:48;7.43;;;5.28;;
28822;SDS011;15961;54.678;9.110;2023-06-22T04:32:17;8.68;;;6.28;;
28822;SDS011;15961;54.678;9.110;2023-06-22T04:34:42;9.10;;;6.00;;
28822;SDS011;15961;54.678;9.110;2023-06-22T04:37:08;11.70;;;7.10;;
28822;SDS011;15961;54.678;9.110;2023-06-22T04:39:33;12.38;;;7.38;;
28822;SDS011;15961;54.678;9.110;2023-06-22T04:41:59;13.88;;;8.43;;
28822;SDS011;15961;54.678;9.110;2023-06-22T04:44:25;13.00;;;9.00;;
28822;SDS011;15961;54.678;9.110;2023-06-22T04:46:51;12.55;;;8.25;;
28822;SDS011;15961;54.678;9.110;2023-06-22T04:49:24;13.98;;;7.30;;
28822;SDS011;15961;54.678;9.110;2023-06-22T04:51:58;15.15;;;7.90;;
28822;SDS011;15961;54.678;9.110;2023-06-22T04:54:23;13.43;;;8.02;;
28822;SDS011;15961;54.678;9.110;2023-06-22T04:56:49;23.10;;;11.90;;
28822;SDS011;15961;54.678;9.110;2023-06-22T04:59:21;19.35;;;11.35;;
28822;SDS011;15961;54.678;9.110;2023-06-22T05:01:47;16.35;;;9.50;;
28822;SDS011;15961;54.678;9.110;2023-06-22T05:04:12;18.85;;;9.80;;
28822;SDS011;15961;54.678;9.110;2023-06-22T05:06:37;25.25;;;13.88;;
28822;SDS011;15961;54.678;9.110;2023-06-22T05:09:03;25.70;;;12.82;;
28822;SDS011;15961;54.678;9.110;2023-06-22T05:11:28;22.20;;;11.60;;
28822;SDS011;15961;54.678;9.110;2023-06-22T05:13:54;23.60;;;14.18;;
28822;SDS011;15961;54.678;9.110;2023-06-22T05:16:20;24.95;;;11.88;;
28822;SDS011;15961;54.678;9.110;2023-06-22T05:18:52;19.90;;;11.20;;
28822;SDS011;15961;54.678;9.110;2023-06-22T05:21:21;27.38;;;14.82;;
28822;SDS011;15961;54.678;9.110;2023-06-22T05:23:47;27.75;;;14.00;;
28822;SDS011;15961;54.678;9.110;2023-06-22T05:26:12;30.10;;;16.50;;
28822;SDS011;15961;54.678;9.110;2023-06-22T05:28:37;27.15;;;15.52;;
28822;SDS011;15961;54.678;9.110;2023-06-22T05:31:03;30.20;;;14.82;;
28822;SDS011;15961;54.678;9.110;2023-06-22T05:33:28;28.65;;;15.82;;
28822;SDS011;15961;54.678;9.110;2023-06-22T05:35:54;17.40;;;11.40;;
28822;SDS011;15961;54.678;9.110;2023-06-22T05:38:19;23.85;;;12.15;;
28822;SDS011;15961;54.678;9.110;2023-06-22T05:40:44;25.15;;;15.00;;
28822;SDS011;15961;54.678;9.110;2023-06-22T05:43:10;26.10;;;14.93;;
28822;SDS011;15961;54.678;9.110;2023-06-22T05:45:35;22.35;;;12.15;;
28822;SDS011;15961;54.678;9.110;2023-06-22T05:48:00;17.60;;;11.48;;
28822;SDS011;15961;54.678;9.110;2023-06-22T05:50:26;20.08;;;11.85;;
28822;SDS011;15961;54.678;9.110;2023-06-22T05:52:51;19.05;;;10.50;;
28822;SDS011;15961;54.678;9.110;2023-06-22T05:55:17;18.77;;;12.18;;
28822;SDS011;15961;54.678;9.110;2023-06-22T05:57:43;20.73;;;11.65;;
28822;SDS011;15961;54.678;9.110;2023-06-22T06:00:09;24.48;;;13.50;;
28822;SDS011;15961;54.678;9.110;2023-06-22T06:02:36;18.55;;;11.32;;
28822;SDS011;15961;54.678;9.110;2023-06-22T06:05:01;15.30;;;8.98;;
28822;SDS011;15961;54.678;9.110;2023-06-22T06:07:27;23.40;;;10.50;;
28822;SDS011;15961;54.678;9.110;2023-06-22T06:09:53;17.58;;;10.35;;
28822;SDS011;15961;54.678;9.110;2023-06-22T06:12:18;23.80;;;12.52;;
28822;SDS011;15961;54.678;9.110;2023-06-22T06:14:43;12.20;;;9.63;;
28822;SDS011;15961;54.678;9.110;2023-06-22T06:17:09;17.90;;;10.02;;
28822;SDS011;15961;54.678;9.110;2023-06-22T06:19:34;15.95;;;10.38;;
28822;SDS011;15961;54.678;9.110;2023-06-22T06:21:59;22.83;;;11.23;;
28822;SDS011;15961;54.678;9.110;2023-06-22T06:24:26;16.17;;;10.80;;
28822;SDS011;15961;54.678;9.110;2023-06-22T06:26:51;16.20;;;10.18;;
28822;SDS011;15961;54.678;9.110;2023-06-22T06:29:16;15.93;;;9.93;;
28822;SDS011;15961;54.678;9.110;2023-06-22T06:31:42;14.43;;;8.30;;
28822;SDS011;15961;54.678;9.110;2023-06-22T06:34:07;19.35;;;10.75;;
28822;SDS011;15961;54.678;9.110;2023-06-22T06:36:32;15.63;;;8.90;;
28822;SDS011;15961;54.678;9.110;2023-06-22T06:38:58;15.05;;;8.57;;
28822;SDS011;15961;54.678;9.110;2023-06-22T06:41:23;11.95;;;7.65;;
28822;SDS011;15961;54.678;9.110;2023-06-22T06:43:48;15.38;;;10.50;;
28822;SDS011;15961;54.678;9.110;2023-06-22T06:46:14;14.60;;;9.98;;
28822;SDS011;15961;54.678;9.110;2023-06-22T06:48:39;15.05;;;7.82;;
28822;SDS011;15961;54.678;9.110;2023-06-22T06:51:04;13.43;;;5.90;;
28822;SDS011;15961;54.678;9.110;2023-06-22T06:53:30;12.00;;;6.45;;
28822;SDS011;15961;54.678;9.110;2023-06-22T06:55:56;9.43;;;6.00;;
28822;SDS011;15961;54.678;9.110;2023-06-22T06:58:21;11.38;;;6.15;;
28822;SDS011;15961;54.678;9.110;2023-06-22T07:00:48;10.75;;;6.10;;
28822;SDS011;15961;54.678;9.110;2023-06-22T07:03:15;12.50;;;7.10;;
28822;SDS011;15961;54.678;9.110;2023-06-22T07:05:40;10.70;;;6.53;;
28822;SDS011;15961;54.678;9.110;2023-06-22T07:08:06;9.05;;;5.13;;
28822;SDS011;15961;54.678;9.110;2023-06-22T07:10:32;7.15;;;4.55;;
28822;SDS011;15961;54.678;9.110;2023-06-22T07:12:58;9.25;;;4.72;;
28822;SDS011;15961;54.678;9.110;2023-06-22T07:15:23;11.90;;;5.60;;
28822;SDS011;15961;54.678;9.110;2023-06-22T07:17:48;10.15;;;5.93;;
28822;SDS011;15961;54.678;9.110;2023-06-22T07:20:14;10.82;;;5.63;;
28822;SDS011;15961;54.678;9.110;2023-06-22T07:22:40;8.18;;;4.40;;
28822;SDS011;15961;54.678;9.110;2023-06-22T07:25:06;8.23;;;4.18;;
28822;SDS011;15961;54.678;9.110;2023-06-22T07:27:38;8.80;;;4.88;;
28822;SDS011;15961;54.678;9.110;2023-06-22T07:30:07;7.10;;;3.88;;
28822;SDS011;15961;54.678;9.110;2023-06-22T07:32:35;10.80;;;4.40;;
28822;SDS011;15961;54.678;9.110;2023-06-22T07:35:00;9.30;;;4.95;;
28822;SDS011;15961;54.678;9.110;2023-06-22T07:37:26;8.18;;;4.53;;
28822;SDS011;15961;54.678;9.110;2023-06-22T07:39:52;11.93;;;6.00;;
28822;SDS011;15961;54.678;9.110;2023-06-22T07:42:18;9.18;;;5.57;;
28822;SDS011;15961;54.678;9.110;2023-06-22T07:44:44;11.25;;;5.90;;
28822;SDS011;15961;54.678;9.110;2023-06-22T07:47:09;9.40;;;5.32;;
28822;SDS011;15961;54.678;9.110;2023-06-22T07:49:34;7.15;;;4.63;;
28822;SDS011;15961;54.678;9.110;2023-06-22T07:52:00;10.60;;;4.18;;
28822;SDS011;15961;54.678;9.110;2023-06-22T07:54:26;8.38;;;4.03;;
28822;SDS011;15961;54.678;9.110;2023-06-22T07:56:51;6.72;;;4.13;;
28822;SDS011;15961;54.678;9.110;2023-06-22T07:59:18;9.27;;;4.95;;
28822;SDS011;15961;54.678;9.110;2023-06-22T08:01:43;10.25;;;5.13;;
28822;SDS011;15961;54.678;9.110;2023-06-22T08:04:08;10.27;;;5.35;;
28822;SDS011;15961;54.678;9.110;2023-06-22T08:06:34;8.35;;;4.00;;
28822;SDS011;15961;54.678;9.110;2023-06-22T08:08:59;6.45;;;4.00;;
28822;SDS011;15961;54.678;9.110;2023-06-22T08:11:24;9.95;;;4.95;;
28822;SDS011;15961;54.678;9.110;2023-06-22T08:13:50;7.18;;;3.50;;
28822;SDS011;15961;54.678;9.110;2023-06-22T08:16:16;6.40;;;3.42;;
28822;SDS011;15961;54.678;9.110;2023-06-22T08:18:41;6.63;;;3.22;;
28822;SDS011;15961;54.678;9.110;2023-06-22T08:21:06;5.68;;;3.33;;
28822;SDS011;15961;54.678;9.110;2023-06-22T08:23:31;7.30;;;4.05;;
28822;SDS011;15961;54.678;9.110;2023-06-22T08:25:57;7.25;;;3.65;;
28822;SDS011;15961;54.678;9.110;2023-06-22T08:28:22;7.93;;;3.67;;
28822;SDS011;15961;54.678;9.110;2023-06-22T08:30:47;9.70;;;4.45;;
28822;SDS011;15961;54.678;9.110;2023-06-22T08:33:13;6.82;;;3.75;;
28822;SDS011;15961;54.678;9.110;2023-06-22T08:35:38;6.50;;;3.65;;
28822;SDS011;15961;54.678;9.110;2023-06-22T08:38:03;8.52;;;3.40;;
28822;SDS011;15961;54.678;9.110;2023-06-22T08:40:29;7.30;;;2.97;;
28822;SDS011;15961;54.678;9.110;2023-06-22T08:42:54;5.07;;;3.00;;
28822;SDS011;15961;54.678;9.110;2023-06-22T08:45:20;7.18;;;3.17;;
28822;SDS011;15961;54.678;9.110;2023-06-22T08:47:45;4.93;;;2.67;;
28822;SDS011;15961;54.678;9.110;2023-06-22T08:50:11;4.38;;;2.38;;
28822;SDS011;15961;54.678;9.110;2023-06-22T08:52:37;5.07;;;2.58;;
28822;SDS011;15961;54.678;9.110;2023-06-22T08:55:03;4.15;;;2.72;;
28822;SDS011;15961;54.678;9.110;2023-06-22T08:57:29;4.00;;;2.63;;
28822;SDS011;15961;54.678;9.110;2023-06-22T08:59:55;7.20;;;3.10;;
28822;SDS011;15961;54.678;9.110;2023-06-22T09:02:23;6.32;;;2.97;;
28822;SDS011;15961;54.678;9.110;2023-06-22T09:04:49;5.72;;;3.40;;
28822;SDS011;15961;54.678;9.110;2023-06-22T09:07:20;5.78;;;2.83;;
28822;SDS011;15961;54.678;9.110;2023-06-22T09:09:47;5.35;;;3.05;;
28822;SDS011;15961;54.678;9.110;2023-06-22T09:12:12;6.00;;;3.60;;
28822;SDS011;15961;54.678;9.110;2023-06-22T09:14:39;4.95;;;2.40;;
28822;SDS011;15961;54.678;9.110;2023-06-22T09:17:04;6.03;;;2.50;;
28822;SDS011;15961;54.678;9.110;2023-06-22T09:19:30;6.15;;;3.03;;
28822;SDS011;15961;54.678;9.110;2023-06-22T09:21:55;6.15;;;2.63;;
28822;SDS011;15961;54.678;9.110;2023-06-22T09:24:20;4.70;;;2.03;;
28822;SDS011;15961;54.678;9.110;2023-06-22T09:26:46;6.32;;;3.00;;
28822;SDS011;15961;54.678;9.110;2023-06-22T09:29:11;3.60;;;2.40;;
28822;SDS011;15961;54.678;9.110;2023-06-22T09:31:36;4.00;;;2.35;;
28822;SDS011;15961;54.678;9.110;2023-06-22T09:34:01;5.13;;;2.22;;
28822;SDS011;15961;54.678;9.110;2023-06-22T09:36:27;4.78;;;2.78;;
28822;SDS011;15961;54.678;9.110;2023-06-22T09:38:52;4.10;;;2.83;;
28822;SDS011;15961;54.678;9.110;2023-06-22T09:41:21;4.30;;;2.42;;
28822;SDS011;15961;54.678;9.110;2023-06-22T09:43:46;4.68;;;2.42;;
28822;SDS011;15961;54.678;9.110;2023-06-22T09:46:14;5.18;;;2.55;;
28822;SDS011;15961;54.678;9.110;2023-06-22T09:48:40;5.55;;;2.83;;
28822;SDS011;15961;54.678;9.110;2023-06-22T09:51:05;4.05;;;2.17;;
28822;SDS011;15961;54.678;9.110;2023-06-22T09:53:30;3.20;;;2.00;;
28822;SDS011;15961;54.678;9.110;2023-06-22T09:55:56;4.50;;;2.78;;
28822;SDS011;15961;54.678;9.110;2023-06-22T09:58:22;6.40;;;3.38;;
28822;SDS011;15961;54.678;9.110;2023-06-22T10:00:47;3.25;;;2.70;;
28822;SDS011;15961;54.678;9.110;2023-06-22T10:03:12;4.75;;;2.25;;
28822;SDS011;15961;54.678;9.110;2023-06-22T10:05:38;4.93;;;2.67;;
28822;SDS011;15961;54.678;9.110;2023-06-22T10:08:03;4.82;;;2.72;;
28822;SDS011;15961;54.678;9.110;2023-06-22T10:10:28;6.20;;;3.00;;
28822;SDS011;15961;54.678;9.110;2023-06-22T10:12:54;6.43;;;2.83;;
28822;SDS011;15961;54.678;9.110;2023-06-22T10:15:21;5.35;;;2.55;;
28822;SDS011;15961;54.678;9.110;2023-06-22T10:17:47;4.53;;;2.53;;
28822;SDS011;15961;54.678;9.110;2023-06-22T10:20:12;4.18;;;2.60;;
28822;SDS011;15961;54.678;9.110;2023-06-22T10:22:41;4.85;;;2.33;;
28822;SDS011;15961;54.678;9.110;2023-06-22T10:27:34;7.35;;;2.90;;
28822;SDS011;15961;54.678;9.110;2023-06-22T10:29:59;3.67;;;2.67;;
28822;SDS011;15961;54.678;9.110;2023-06-22T10:32:25;4.95;;;2.35;;
28822;SDS011;15961;54.678;9.110;2023-06-22T10:34:50;7.93;;;2.20;;
28822;SDS011;15961;54.678;9.110;2023-06-22T10:37:15;5.97;;;2.70;;
28822;SDS011;15961;54.678;9.110;2023-06-22T10:39:41;5.53;;;2.28;;
28822;SDS011;15961;54.678;9.110;2023-06-22T10:42:06;3.30;;;1.90;;
28822;SDS011;15961;54.678;9.110;2023-06-22T10:44:32;4.32;;;2.25;;
28822;SDS011;15961;54.678;9.110;2023-06-22T10:46:57;3.65;;;2.22;;
28822;SDS011;15961;54.678;9.110;2023-06-22T10:49:23;3.42;;;2.00;;
28822;SDS011;15961;54.678;9.110;2023-06-22T10:51:48;4.32;;;2.40;;
28822;SDS011;15961;54.678;9.110;2023-06-22T10:54:13;4.88;;;2.03;;
28822;SDS011;15961;54.678;9.110;2023-06-22T10:56:39;5.30;;;2.30;;
28822;SDS011;15961;54.678;9.110;2023-06-22T10:59:05;5.32;;;2.30;;
28822;SDS011;15961;54.678;9.110;2023-06-22T11:01:30;5.82;;;2.40;;
28822;SDS011;15961;54.678;9.110;2023-06-22T11:03:58;4.22;;;2.05;;
28822;SDS011;15961;54.678;9.110;2023-06-22T11:06:24;5.13;;;2.15;;
28822;SDS011;15961;54.678;9.110;2023-06-22T11:08:49;4.50;;;2.40;;
28822;SDS011;15961;54.678;9.110;2023-06-22T11:11:15;3.63;;;1.88;;
28822;SDS011;15961;54.678;9.110;2023-06-22T11:13:42;3.97;;;1.83;;
28822;SDS011;15961;54.678;9.110;2023-06-22T11:16:08;3.20;;;2.05;;
28822;SDS011;15961;54.678;9.110;2023-06-22T11:18:34;5.32;;;2.17;;
28822;SDS011;15961;54.678;9.110;2023-06-22T11:21:00;4.00;;;2.30;;
28822;SDS011;15961;54.678;9.110;2023-06-22T11:23:25;3.97;;;1.95;;
28822;SDS011;15961;54.678;9.110;2023-06-22T11:25:52;3.80;;;2.15;;
28822;SDS011;15961;54.678;9.110;2023-06-22T11:28:17;3.47;;;1.95;;
28822;SDS011;15961;54.678;9.110;2023-06-22T11:30:43;4.13;;;2.10;;
28822;SDS011;15961;54.678;9.110;2023-06-22T11:33:08;3.03;;;2.38;;
28822;SDS011;15961;54.678;9.110;2023-06-22T11:35:33;3.55;;;1.90;;
28822;SDS011;15961;54.678;9.110;2023-06-22T11:37:59;4.15;;;2.10;;
28822;SDS011;15961;54.678;9.110;2023-06-22T11:40:24;3.38;;;1.83;;
28822;SDS011;15961;54.678;9.110;2023-06-22T11:42:49;3.92;;;1.83;;
28822;SDS011;15961;54.678;9.110;2023-06-22T11:45:14;3.83;;;2.78;;
28822;SDS011;15961;54.678;9.110;2023-06-22T11:47:40;2.90;;;1.90;;
28822;SDS011;15961;54.678;9.110;2023-06-22T11:50:05;3.15;;;2.00;;
28822;SDS011;15961;54.678;9.110;2023-06-22T11:52:31;3.33;;;2.05;;
28822;SDS011;15961;54.678;9.110;2023-06-22T11:54:56;3.83;;;2.00;;
28822;SDS011;15961;54.678;9.110;2023-06-22T11:57:24;3.90;;;1.95;;
28822;SDS011;15961;54.678;9.110;2023-06-22T11:59:49;4.97;;;2.25;;
28822;SDS011;15961;54.678;9.110;2023-06-22T12:02:14;3.72;;;2.00;;
28822;SDS011;15961;54.678;9.110;2023-06-22T12:04:39;3.90;;;1.98;;
28822;SDS011;15961;54.678;9.110;2023-06-22T12:07:05;5.57;;;2.00;;
28822;SDS011;15961;54.678;9.110;2023-06-22T12:09:30;4.18;;;1.95;;
28822;SDS011;15961;54.678;9.110;2023-06-22T12:11:55;3.63;;;2.00;;
28822;SDS011;15961;54.678;9.110;2023-06-22T12:14:21;5.40;;;2.20;;
28822;SDS011;15961;54.678;9.110;2023-06-22T12:16:46;3.38;;;1.90;;
28822;SDS011;15961;54.678;9.110;2023-06-22T12:19:12;3.45;;;1.85;;
28822;SDS011;15961;54.678;9.110;2023-06-22T12:21:37;2.83;;;1.80;;
28822;SDS011;15961;54.678;9.110;2023-06-22T12:24:03;3.90;;;1.60;;
28822;SDS011;15961;54.678;9.110;2023-06-22T12:26:28;5.68;;;1.77;;
28822;SDS011;15961;54.678;9.110;2023-06-22T12:28:53;4.53;;;1.80;;
28822;SDS011;15961;54.678;9.110;2023-06-22T12:31:19;2.78;;;1.95;;
28822;SDS011;15961;54.678;9.110;2023-06-22T12:33:44;5.32;;;2.08;;
28822;SDS011;15961;54.678;9.110;2023-06-22T12:36:09;2.45;;;1.73;;
28822;SDS011;15961;54.678;9.110;2023-06-22T12:38:35;3.05;;;1.73;;
28822;SDS011;15961;54.678;9.110;2023-06-22T12:41:00;2.42;;;1.52;;
28822;SDS011;15961;54.678;9.110;2023-06-22T12:43:25;3.25;;;1.52;;
28822;SDS011;15961;54.678;9.110;2023-06-22T12:45:51;3.22;;;1.60;;
28822;SDS011;15961;54.678;9.110;2023-06-22T12:48:16;2.60;;;1.42;;
28822;SDS011;15961;54.678;9.110;2023-06-22T12:50:42;3.00;;;1.65;;
28822;SDS011;15961;54.678;9.110;2023-06-22T12:53:07;3.63;;;2.00;;
28822;SDS011;15961;54.678;9.110;2023-06-22T12:55:32;2.88;;;1.80;;
28822;SDS011;15961;54.678;9.110;2023-06-22T12:57:58;3.15;;;1.80;;
28822;SDS011;15961;54.678;9.110;2023-06-22T13:00:23;2.30;;;1.50;;
28822;SDS011;15961;54.678;9.110;2023-06-22T13:02:48;3.38;;;1.85;;
28822;SDS011;15961;54.678;9.110;2023-06-22T13:05:13;4.75;;;1.75;;
28822;SDS011;15961;54.678;9.110;2023-06-22T13:07:39;3.20;;;1.70;;
28822;SDS011;15961;54.678;9.110;2023-06-22T13:10:04;4.00;;;1.83;;
28822;SDS011;15961;54.678;9.110;2023-06-22T13:12:30;2.03;;;1.55;;
28822;SDS011;15961;54.678;9.110;2023-06-22T13:14:55;3.50;;;2.00;;
28822;SDS011;15961;54.678;9.110;2023-06-22T13:17:20;2.25;;;1.50;;
28822;SDS011;15961;54.678;9.110;2023-06-22T13:19:46;3.72;;;1.77;;
28822;SDS011;15961;54.678;9.110;2023-06-22T13:24:52;3.72;;;2.13;;
28822;SDS011;15961;54.678;9.110;2023-06-22T13:27:17;3.85;;;1.60;;
28822;SDS011;15961;54.678;9.110;2023-06-22T13:29:43;2.55;;;1.85;;
28822;SDS011;15961;54.678;9.110;2023-06-22T13:32:08;3.33;;;1.77;;
28822;SDS011;15961;54.678;9.110;2023-06-22T13:34:33;2.33;;;1.50;;
28822;SDS011;15961;54.678;9.110;2023-06-22T13:36:58;2.33;;;1.65;;
28822;SDS011;15961;54.678;9.110;2023-06-22T13:39:24;3.33;;;1.63;;
28822;SDS011;15961;54.678;9.110;2023-06-22T13:41:49;2.40;;;1.60;;
28822;SDS011;15961;54.678;9.110;2023-06-22T13:44:14;3.38;;;1.70;;
28822;SDS011;15961;54.678;9.110;2023-06-22T13:46:39;2.28;;;1.60;;
28822;SDS011;15961;54.678;9.110;2023-06-22T13:49:05;2.40;;;1.50;;
28822;SDS011;15961;54.678;9.110;2023-06-22T13:51:30;2.60;;;1.70;;
28822;SDS011;15961;54.678;9.110;2023-06-22T13:53:55;3.83;;;1.60;;
28822;SDS011;15961;54.678;9.110;2023-06-22T13:56:21;2.47;;;1.70;;
28822;SDS011;15961;54.678;9.110;2023-06-22T13:58:46;4.05;;;1.88;;
28822;SDS011;15961;54.678;9.110;2023-06-22T14:01:12;2.95;;;1.70;;
28822;SDS011;15961;54.678;9.110;2023-06-22T14:03:37;2.58;;;1.73;;
28822;SDS011;15961;54.678;9.110;2023-06-22T14:06:02;2.83;;;1.80;;
28822;SDS011;15961;54.678;9.110;2023-06-22T14:08:29;2.63;;;1.60;;
28822;SDS011;15961;54.678;9.110;2023-06-22T14:10:54;3.50;;;1.85;;
28822;SDS011;15961;54.678;9.110;2023-06-22T14:13:19;4.53;;;1.90;;
28822;SDS011;15961;54.678;9.110;2023-06-22T14:15:45;2.97;;;1.60;;
28822;SDS011;15961;54.678;9.110;2023-06-22T14:18:13;2.67;;;1.85;;
28822;SDS011;15961;54.678;9.110;2023-06-22T14:20:39;2.80;;;1.90;;
28822;SDS011;15961;54.678;9.110;2023-06-22T14:23:05;3.72;;;1.65;;
28822;SDS011;15961;54.678;9.110;2023-06-22T14:25:30;2.58;;;1.65;;
28822;SDS011;15961;54.678;9.110;2023-06-22T14:27:55;2.80;;;1.90;;
28822;SDS011;15961;54.678;9.110;2023-06-22T14:30:21;3.42;;;1.60;;
28822;SDS011;15961;54.678;9.110;2023-06-22T14:32:46;2.75;;;1.80;;
28822;SDS011;15961;54.678;9.110;2023-06-22T14:35:11;4.57;;;1.80;;
28822;SDS011;15961;54.678;9.110;2023-06-22T14:37:36;2.20;;;1.30;;
28822;SDS011;15961;54.678;9.110;2023-06-22T14:40:02;3.33;;;2.00;;
28822;SDS011;15961;54.678;9.110;2023-06-22T14:42:27;5.00;;;1.70;;
28822;SDS011;15961;54.678;9.110;2023-06-22T14:44:55;3.60;;;2.10;;